Portada
METAR-TAF:

METAR-TAF

Aeroports :

Srinagar, Índia

latitud: 33-59-14N, longitud: 074-46-27E, altitud: 1655 m

Observació

L'informe es va fer fa 38 minuts, a les 17:30 UTC
Vent 2 kt amb direcció variable
Temperatura 6°C
Humitat 81%
Pressió 1024 hPa
Visibilitat: 6000 m
Escasses núvols a una alçada de 3000 ft
Núvols disperses a una alçada de 10000 ft

METAR: VISR 211730Z VRB02KT 6000 FEW030 SCT100 06/03 Q1024 NOSIG

Hora: 23:38 (18:08 UTC)

Pronòstic

L'informe es va fer fa 8 hores i 38 minuts, a les 09:30 UTC
Pronòstic vàlid del 21 a les 12 UTC al 21 a les 24 UTC
Vent 2 kt amb direcció variable
Visibilitat: 6000 m
Núvols disperses a una alçada de 2000 ft
Núvols disperses a una alçada de 3000 ft
Evolucionant progressivament
entre i UTC
A partir de les UTC
Visibilitat: 2116 m
Escasses núvols a una alçada de 3000 ft

TAF: VISR 210930Z 2112/2124 VRB02KT 6000 SCT020 SCT030 BECMG FM 2116 FEW030

Observacions i pronòstics meteorològics de més de 4000 aeroports (METAR i TAF).

Les estacions disponibles són els punts grocs i vermells al mapa.

Posi el ratolí al punt desitjat per veure el nom de l'estació.

Feu clic per veure les observacions i els pronòstics meteorològics.

Per canviar el mapa: feu clic els botons verds amb una creu de color negre per apropar; al botó verd amb un guió per allunyar la imatge; o en les fletxes verdes per a mapes adjacents.


METAR-TAF: